Terminal Aerodrome Forecast
Issued by NWS

Home | Current Version | Previous Version | Text Only | Print | Product List | Glossary On
Versions: 1 2 3 4 5 6 7 8 9 10 11 12 13
000
FTUS42 KTBW 230500 RRA
TAFLAL
TAF
KLAL 230543Z 2306/2406 VRB03KT P6SM FEW030 SCT250
     FM231500 02005KT P6SM FEW030 SCT250
     FM231800 02007KT P6SM VCTS SCT030CB BKN150 BKN250
     FM240000 VRB03KT P6SM FEW035 BKN250
      AMD NOT SKED TIL 231200=

USA.gov is the U.S. government's official web portal to all federal, state and local government web resources and services.